sensor_id;sensor_type;location;lat;lon;timestamp;P1;durP1;ratioP1;P2;durP2;ratioP2
21095;SDS011;10706;49.036;12.112;2023-04-19T00:01:49;19.90;;;9.20;;
21095;SDS011;10706;49.036;12.112;2023-04-19T00:04:15;17.77;;;8.90;;
21095;SDS011;10706;49.036;12.112;2023-04-19T00:06:41;20.83;;;9.83;;
21095;SDS011;10706;49.036;12.112;2023-04-19T00:09:07;21.57;;;9.67;;
21095;SDS011;10706;49.036;12.112;2023-04-19T00:11:33;23.23;;;9.70;;
21095;SDS011;10706;49.036;12.112;2023-04-19T00:13:59;20.73;;;9.27;;
21095;SDS011;10706;49.036;12.112;2023-04-19T00:16:24;20.90;;;9.40;;
21095;SDS011;10706;49.036;12.112;2023-04-19T00:18:50;19.60;;;9.23;;
21095;SDS011;10706;49.036;12.112;2023-04-19T00:21:16;23.13;;;9.30;;
21095;SDS011;10706;49.036;12.112;2023-04-19T00:23:42;21.33;;;8.63;;
21095;SDS011;10706;49.036;12.112;2023-04-19T00:26:07;22.30;;;8.97;;
21095;SDS011;10706;49.036;12.112;2023-04-19T00:28:35;22.33;;;9.20;;
21095;SDS011;10706;49.036;12.112;2023-04-19T00:31:01;21.67;;;9.40;;
21095;SDS011;10706;49.036;12.112;2023-04-19T00:33:27;24.47;;;9.57;;
21095;SDS011;10706;49.036;12.112;2023-04-19T00:35:52;22.10;;;10.63;;
21095;SDS011;10706;49.036;12.112;2023-04-19T00:38:18;20.70;;;10.03;;
21095;SDS011;10706;49.036;12.112;2023-04-19T00:40:44;22.13;;;9.30;;
21095;SDS011;10706;49.036;12.112;2023-04-19T00:43:10;21.07;;;9.63;;
21095;SDS011;10706;49.036;12.112;2023-04-19T00:45:36;22.07;;;9.90;;
21095;SDS011;10706;49.036;12.112;2023-04-19T00:48:02;24.57;;;10.23;;
21095;SDS011;10706;49.036;12.112;2023-04-19T00:50:28;22.40;;;9.77;;
21095;SDS011;10706;49.036;12.112;2023-04-19T00:52:55;24.13;;;10.27;;
21095;SDS011;10706;49.036;12.112;2023-04-19T00:55:21;22.80;;;10.80;;
21095;SDS011;10706;49.036;12.112;2023-04-19T00:57:47;23.63;;;11.03;;
21095;SDS011;10706;49.036;12.112;2023-04-19T01:00:13;26.63;;;11.70;;
21095;SDS011;10706;49.036;12.112;2023-04-19T01:02:39;22.50;;;10.27;;
21095;SDS011;10706;49.036;12.112;2023-04-19T01:05:06;26.13;;;10.53;;
21095;SDS011;10706;49.036;12.112;2023-04-19T01:07:35;23.70;;;10.80;;
21095;SDS011;10706;49.036;12.112;2023-04-19T01:10:00;25.80;;;11.90;;
21095;SDS011;10706;49.036;12.112;2023-04-19T01:12:26;23.20;;;10.10;;
21095;SDS011;10706;49.036;12.112;2023-04-19T01:14:52;24.83;;;10.37;;
21095;SDS011;10706;49.036;12.112;2023-04-19T01:17:18;23.97;;;10.80;;
21095;SDS011;10706;49.036;12.112;2023-04-19T01:19:44;29.60;;;10.93;;
21095;SDS011;10706;49.036;12.112;2023-04-19T01:22:15;26.60;;;11.40;;
21095;SDS011;10706;49.036;12.112;2023-04-19T01:24:43;26.83;;;11.43;;
21095;SDS011;10706;49.036;12.112;2023-04-19T01:27:09;26.70;;;11.03;;
21095;SDS011;10706;49.036;12.112;2023-04-19T01:29:35;28.10;;;11.30;;
21095;SDS011;10706;49.036;12.112;2023-04-19T01:32:01;31.87;;;11.63;;
21095;SDS011;10706;49.036;12.112;2023-04-19T01:34:26;24.47;;;11.70;;
21095;SDS011;10706;49.036;12.112;2023-04-19T01:36:52;26.17;;;11.30;;
21095;SDS011;10706;49.036;12.112;2023-04-19T01:39:18;24.00;;;11.30;;
21095;SDS011;10706;49.036;12.112;2023-04-19T01:41:44;29.50;;;13.10;;
21095;SDS011;10706;49.036;12.112;2023-04-19T01:44:09;26.10;;;11.93;;
21095;SDS011;10706;49.036;12.112;2023-04-19T01:46:36;27.80;;;12.70;;
21095;SDS011;10706;49.036;12.112;2023-04-19T01:49:02;30.77;;;12.30;;
21095;SDS011;10706;49.036;12.112;2023-04-19T01:51:28;29.43;;;12.67;;
21095;SDS011;10706;49.036;12.112;2023-04-19T01:53:54;29.07;;;12.70;;
21095;SDS011;10706;49.036;12.112;2023-04-19T01:56:20;35.80;;;14.80;;
21095;SDS011;10706;49.036;12.112;2023-04-19T01:58:46;28.00;;;12.53;;
21095;SDS011;10706;49.036;12.112;2023-04-19T02:01:11;32.83;;;13.03;;
21095;SDS011;10706;49.036;12.112;2023-04-19T02:03:40;29.50;;;13.33;;
21095;SDS011;10706;49.036;12.112;2023-04-19T02:06:09;30.33;;;12.30;;
21095;SDS011;10706;49.036;12.112;2023-04-19T02:08:36;26.10;;;11.87;;
21095;SDS011;10706;49.036;12.112;2023-04-19T02:11:12;29.67;;;12.63;;
21095;SDS011;10706;49.036;12.112;2023-04-19T02:13:38;30.30;;;12.80;;
21095;SDS011;10706;49.036;12.112;2023-04-19T02:16:05;29.67;;;12.27;;
21095;SDS011;10706;49.036;12.112;2023-04-19T02:18:31;30.73;;;13.63;;
21095;SDS011;10706;49.036;12.112;2023-04-19T02:20:57;26.40;;;12.23;;
21095;SDS011;10706;49.036;12.112;2023-04-19T02:23:24;34.03;;;13.43;;
21095;SDS011;10706;49.036;12.112;2023-04-19T02:25:50;28.73;;;13.67;;
21095;SDS011;10706;49.036;12.112;2023-04-19T02:28:16;29.53;;;13.20;;
21095;SDS011;10706;49.036;12.112;2023-04-19T02:30:41;34.80;;;13.47;;
21095;SDS011;10706;49.036;12.112;2023-04-19T02:33:07;28.70;;;12.07;;
21095;SDS011;10706;49.036;12.112;2023-04-19T02:35:33;35.83;;;14.10;;
21095;SDS011;10706;49.036;12.112;2023-04-19T02:37:59;32.93;;;13.40;;
21095;SDS011;10706;49.036;12.112;2023-04-19T02:40:27;33.80;;;12.90;;
21095;SDS011;10706;49.036;12.112;2023-04-19T02:42:53;32.47;;;12.63;;
21095;SDS011;10706;49.036;12.112;2023-04-19T02:45:18;33.67;;;14.13;;
21095;SDS011;10706;49.036;12.112;2023-04-19T02:47:44;29.33;;;13.27;;
21095;SDS011;10706;49.036;12.112;2023-04-19T02:50:10;37.47;;;15.17;;
21095;SDS011;10706;49.036;12.112;2023-04-19T02:52:37;32.10;;;13.87;;
21095;SDS011;10706;49.036;12.112;2023-04-19T02:55:04;31.20;;;13.93;;
21095;SDS011;10706;49.036;12.112;2023-04-19T02:57:30;32.07;;;15.77;;
21095;SDS011;10706;49.036;12.112;2023-04-19T02:59:56;31.23;;;14.07;;
21095;SDS011;10706;49.036;12.112;2023-04-19T03:02:23;35.10;;;14.53;;
21095;SDS011;10706;49.036;12.112;2023-04-19T03:04:51;32.93;;;14.63;;
21095;SDS011;10706;49.036;12.112;2023-04-19T03:07:18;34.73;;;13.47;;
21095;SDS011;10706;49.036;12.112;2023-04-19T03:09:43;34.67;;;14.80;;
21095;SDS011;10706;49.036;12.112;2023-04-19T03:12:09;32.60;;;14.40;;
21095;SDS011;10706;49.036;12.112;2023-04-19T03:14:35;38.13;;;15.70;;
21095;SDS011;10706;49.036;12.112;2023-04-19T03:17:01;42.07;;;14.90;;
21095;SDS011;10706;49.036;12.112;2023-04-19T03:19:27;34.67;;;15.13;;
21095;SDS011;10706;49.036;12.112;2023-04-19T03:21:53;32.47;;;14.53;;
21095;SDS011;10706;49.036;12.112;2023-04-19T03:24:22;33.33;;;15.30;;
21095;SDS011;10706;49.036;12.112;2023-04-19T03:26:53;34.03;;;15.67;;
21095;SDS011;10706;49.036;12.112;2023-04-19T03:29:19;32.37;;;14.00;;
21095;SDS011;10706;49.036;12.112;2023-04-19T03:31:45;34.10;;;14.10;;
21095;SDS011;10706;49.036;12.112;2023-04-19T03:34:11;37.80;;;13.97;;
21095;SDS011;10706;49.036;12.112;2023-04-19T03:36:38;36.47;;;14.73;;
21095;SDS011;10706;49.036;12.112;2023-04-19T03:39:04;33.73;;;13.80;;
21095;SDS011;10706;49.036;12.112;2023-04-19T03:41:30;39.67;;;15.90;;
21095;SDS011;10706;49.036;12.112;2023-04-19T03:43:56;35.73;;;14.30;;
21095;SDS011;10706;49.036;12.112;2023-04-19T03:46:22;34.47;;;15.63;;
21095;SDS011;10706;49.036;12.112;2023-04-19T03:48:48;33.40;;;16.00;;
21095;SDS011;10706;49.036;12.112;2023-04-19T03:51:15;36.53;;;15.03;;
21095;SDS011;10706;49.036;12.112;2023-04-19T03:53:41;40.80;;;15.77;;
21095;SDS011;10706;49.036;12.112;2023-04-19T03:56:07;40.80;;;15.80;;
21095;SDS011;10706;49.036;12.112;2023-04-19T03:58:32;37.40;;;14.93;;
21095;SDS011;10706;49.036;12.112;2023-04-19T04:00:58;34.80;;;14.10;;
21095;SDS011;10706;49.036;12.112;2023-04-19T04:03:25;32.90;;;14.83;;
21095;SDS011;10706;49.036;12.112;2023-04-19T04:05:51;34.47;;;14.40;;
21095;SDS011;10706;49.036;12.112;2023-04-19T04:08:17;31.30;;;14.40;;
21095;SDS011;10706;49.036;12.112;2023-04-19T04:10:42;35.87;;;15.37;;
21095;SDS011;10706;49.036;12.112;2023-04-19T04:13:08;32.07;;;15.33;;
21095;SDS011;10706;49.036;12.112;2023-04-19T04:15:34;35.13;;;14.67;;
21095;SDS011;10706;49.036;12.112;2023-04-19T04:18:00;36.40;;;15.70;;
21095;SDS011;10706;49.036;12.112;2023-04-19T04:20:26;34.70;;;14.43;;
21095;SDS011;10706;49.036;12.112;2023-04-19T04:22:52;38.47;;;16.37;;
21095;SDS011;10706;49.036;12.112;2023-04-19T04:25:17;31.63;;;14.27;;
21095;SDS011;10706;49.036;12.112;2023-04-19T04:27:43;36.57;;;14.57;;
21095;SDS011;10706;49.036;12.112;2023-04-19T04:30:09;33.43;;;14.80;;
21095;SDS011;10706;49.036;12.112;2023-04-19T04:32:36;43.63;;;16.70;;
21095;SDS011;10706;49.036;12.112;2023-04-19T04:35:06;38.47;;;15.63;;
21095;SDS011;10706;49.036;12.112;2023-04-19T04:37:33;37.63;;;16.13;;
21095;SDS011;10706;49.036;12.112;2023-04-19T04:40:00;34.93;;;16.60;;
21095;SDS011;10706;49.036;12.112;2023-04-19T04:42:29;34.93;;;14.37;;
21095;SDS011;10706;49.036;12.112;2023-04-19T04:44:55;34.10;;;15.00;;
21095;SDS011;10706;49.036;12.112;2023-04-19T04:47:22;40.60;;;16.57;;
21095;SDS011;10706;49.036;12.112;2023-04-19T04:49:48;35.17;;;15.60;;
21095;SDS011;10706;49.036;12.112;2023-04-19T04:52:14;34.53;;;15.87;;
21095;SDS011;10706;49.036;12.112;2023-04-19T04:54:41;36.63;;;15.90;;
21095;SDS011;10706;49.036;12.112;2023-04-19T04:57:07;34.97;;;15.00;;
21095;SDS011;10706;49.036;12.112;2023-04-19T04:59:33;34.60;;;15.20;;
21095;SDS011;10706;49.036;12.112;2023-04-19T05:01:58;33.90;;;16.00;;
21095;SDS011;10706;49.036;12.112;2023-04-19T05:04:24;33.80;;;14.83;;
21095;SDS011;10706;49.036;12.112;2023-04-19T05:06:50;32.97;;;14.40;;
21095;SDS011;10706;49.036;12.112;2023-04-19T05:09:16;30.93;;;13.10;;
21095;SDS011;10706;49.036;12.112;2023-04-19T05:11:41;30.73;;;14.20;;
21095;SDS011;10706;49.036;12.112;2023-04-19T05:14:07;31.03;;;13.43;;
21095;SDS011;10706;49.036;12.112;2023-04-19T05:16:33;32.63;;;14.60;;
21095;SDS011;10706;49.036;12.112;2023-04-19T05:18:59;34.27;;;14.37;;
21095;SDS011;10706;49.036;12.112;2023-04-19T05:21:24;33.00;;;13.60;;
21095;SDS011;10706;49.036;12.112;2023-04-19T05:23:50;30.07;;;15.10;;
21095;SDS011;10706;49.036;12.112;2023-04-19T05:26:17;36.40;;;15.70;;
21095;SDS011;10706;49.036;12.112;2023-04-19T05:28:43;55.30;;;25.33;;
21095;SDS011;10706;49.036;12.112;2023-04-19T05:31:10;53.13;;;25.73;;
21095;SDS011;10706;49.036;12.112;2023-04-19T05:33:36;33.70;;;15.83;;
21095;SDS011;10706;49.036;12.112;2023-04-19T05:36:02;32.53;;;16.47;;
21095;SDS011;10706;49.036;12.112;2023-04-19T05:38:28;34.03;;;15.23;;
21095;SDS011;10706;49.036;12.112;2023-04-19T05:40:53;31.83;;;14.37;;
21095;SDS011;10706;49.036;12.112;2023-04-19T05:43:19;30.83;;;15.03;;
21095;SDS011;10706;49.036;12.112;2023-04-19T05:45:45;29.67;;;13.83;;
21095;SDS011;10706;49.036;12.112;2023-04-19T05:48:11;30.67;;;14.20;;
21095;SDS011;10706;49.036;12.112;2023-04-19T05:50:37;29.97;;;13.27;;
21095;SDS011;10706;49.036;12.112;2023-04-19T05:53:03;28.43;;;13.13;;
21095;SDS011;10706;49.036;12.112;2023-04-19T05:55:29;30.03;;;14.37;;
21095;SDS011;10706;49.036;12.112;2023-04-19T05:57:55;28.50;;;13.60;;
21095;SDS011;10706;49.036;12.112;2023-04-19T06:00:22;30.10;;;13.33;;
21095;SDS011;10706;49.036;12.112;2023-04-19T06:02:48;29.27;;;14.07;;
21095;SDS011;10706;49.036;12.112;2023-04-19T06:05:14;28.67;;;13.57;;
21095;SDS011;10706;49.036;12.112;2023-04-19T06:07:40;27.27;;;13.03;;
21095;SDS011;10706;49.036;12.112;2023-04-19T06:10:06;35.10;;;13.97;;
21095;SDS011;10706;49.036;12.112;2023-04-19T06:12:32;31.03;;;13.30;;
21095;SDS011;10706;49.036;12.112;2023-04-19T06:14:58;29.57;;;13.47;;
21095;SDS011;10706;49.036;12.112;2023-04-19T06:17:24;31.50;;;12.87;;
21095;SDS011;10706;49.036;12.112;2023-04-19T06:19:50;29.20;;;13.17;;
21095;SDS011;10706;49.036;12.112;2023-04-19T06:22:16;30.03;;;11.60;;
21095;SDS011;10706;49.036;12.112;2023-04-19T06:24:46;30.93;;;12.80;;
21095;SDS011;10706;49.036;12.112;2023-04-19T06:27:12;27.17;;;12.00;;
21095;SDS011;10706;49.036;12.112;2023-04-19T06:29:42;25.60;;;12.27;;
21095;SDS011;10706;49.036;12.112;2023-04-19T06:32:08;25.50;;;12.40;;
21095;SDS011;10706;49.036;12.112;2023-04-19T06:34:35;29.27;;;12.13;;
21095;SDS011;10706;49.036;12.112;2023-04-19T06:37:00;24.47;;;11.60;;
21095;SDS011;10706;49.036;12.112;2023-04-19T06:39:26;28.57;;;11.70;;
21095;SDS011;10706;49.036;12.112;2023-04-19T06:41:52;26.53;;;11.67;;
21095;SDS011;10706;49.036;12.112;2023-04-19T06:44:18;28.87;;;12.27;;
21095;SDS011;10706;49.036;12.112;2023-04-19T06:46:43;25.03;;;11.57;;
21095;SDS011;10706;49.036;12.112;2023-04-19T06:49:09;26.23;;;11.20;;
21095;SDS011;10706;49.036;12.112;2023-04-19T06:51:36;28.50;;;13.40;;
21095;SDS011;10706;49.036;12.112;2023-04-19T06:54:03;22.93;;;11.53;;
21095;SDS011;10706;49.036;12.112;2023-04-19T06:56:38;30.83;;;13.03;;
21095;SDS011;10706;49.036;12.112;2023-04-19T06:59:15;24.60;;;11.57;;
21095;SDS011;10706;49.036;12.112;2023-04-19T07:01:43;27.20;;;12.23;;
21095;SDS011;10706;49.036;12.112;2023-04-19T07:04:11;28.40;;;11.80;;
21095;SDS011;10706;49.036;12.112;2023-04-19T07:06:38;26.70;;;11.37;;
21095;SDS011;10706;49.036;12.112;2023-04-19T07:09:04;25.03;;;11.43;;
21095;SDS011;10706;49.036;12.112;2023-04-19T07:11:31;28.37;;;12.50;;
21095;SDS011;10706;49.036;12.112;2023-04-19T07:13:57;25.00;;;12.77;;
21095;SDS011;10706;49.036;12.112;2023-04-19T07:16:26;29.10;;;12.33;;
21095;SDS011;10706;49.036;12.112;2023-04-19T07:18:52;24.73;;;11.30;;
21095;SDS011;10706;49.036;12.112;2023-04-19T07:21:18;30.23;;;12.53;;
21095;SDS011;10706;49.036;12.112;2023-04-19T07:23:44;28.30;;;12.80;;
21095;SDS011;10706;49.036;12.112;2023-04-19T07:26:10;26.30;;;12.50;;
21095;SDS011;10706;49.036;12.112;2023-04-19T07:28:35;27.73;;;13.20;;
21095;SDS011;10706;49.036;12.112;2023-04-19T07:31:03;30.33;;;12.40;;
21095;SDS011;10706;49.036;12.112;2023-04-19T07:33:29;28.23;;;12.07;;
21095;SDS011;10706;49.036;12.112;2023-04-19T07:35:55;28.70;;;11.93;;
21095;SDS011;10706;49.036;12.112;2023-04-19T07:38:21;29.93;;;13.23;;
21095;SDS011;10706;49.036;12.112;2023-04-19T07:40:47;32.60;;;13.07;;
21095;SDS011;10706;49.036;12.112;2023-04-19T07:43:12;29.03;;;13.70;;
21095;SDS011;10706;49.036;12.112;2023-04-19T07:45:38;30.07;;;13.77;;
21095;SDS011;10706;49.036;12.112;2023-04-19T07:48:04;30.87;;;14.10;;
21095;SDS011;10706;49.036;12.112;2023-04-19T07:50:30;31.03;;;13.17;;
21095;SDS011;10706;49.036;12.112;2023-04-19T07:52:56;31.83;;;13.93;;
21095;SDS011;10706;49.036;12.112;2023-04-19T07:55:21;29.60;;;14.43;;
21095;SDS011;10706;49.036;12.112;2023-04-19T07:57:48;34.27;;;14.47;;
21095;SDS011;10706;49.036;12.112;2023-04-19T08:00:14;28.37;;;13.43;;
21095;SDS011;10706;49.036;12.112;2023-04-19T08:02:42;29.17;;;13.93;;
21095;SDS011;10706;49.036;12.112;2023-04-19T08:05:09;30.13;;;14.23;;
21095;SDS011;10706;49.036;12.112;2023-04-19T08:07:35;34.67;;;16.53;;
21095;SDS011;10706;49.036;12.112;2023-04-19T08:10:00;41.43;;;16.90;;
21095;SDS011;10706;49.036;12.112;2023-04-19T08:12:26;35.43;;;15.40;;
21095;SDS011;10706;49.036;12.112;2023-04-19T08:14:52;32.20;;;14.33;;
21095;SDS011;10706;49.036;12.112;2023-04-19T08:17:17;32.37;;;13.97;;
21095;SDS011;10706;49.036;12.112;2023-04-19T08:19:45;30.50;;;14.00;;
21095;SDS011;10706;49.036;12.112;2023-04-19T08:22:13;27.50;;;13.67;;
21095;SDS011;10706;49.036;12.112;2023-04-19T08:24:41;32.53;;;15.17;;
21095;SDS011;10706;49.036;12.112;2023-04-19T08:27:07;33.90;;;15.00;;
21095;SDS011;10706;49.036;12.112;2023-04-19T08:29:36;30.97;;;15.17;;
21095;SDS011;10706;49.036;12.112;2023-04-19T08:32:05;28.93;;;13.67;;
21095;SDS011;10706;49.036;12.112;2023-04-19T08:34:33;32.67;;;13.83;;
21095;SDS011;10706;49.036;12.112;2023-04-19T08:37:00;31.50;;;13.43;;
21095;SDS011;10706;49.036;12.112;2023-04-19T08:39:27;28.43;;;13.73;;
21095;SDS011;10706;49.036;12.112;2023-04-19T08:41:54;31.37;;;14.13;;
21095;SDS011;10706;49.036;12.112;2023-04-19T08:44:22;31.37;;;14.10;;
21095;SDS011;10706;49.036;12.112;2023-04-19T08:46:50;34.53;;;14.73;;
21095;SDS011;10706;49.036;12.112;2023-04-19T08:49:16;32.90;;;14.53;;
21095;SDS011;10706;49.036;12.112;2023-04-19T08:51:45;35.30;;;15.63;;
21095;SDS011;10706;49.036;12.112;2023-04-19T08:54:14;31.13;;;14.43;;
21095;SDS011;10706;49.036;12.112;2023-04-19T08:56:40;29.00;;;13.40;;
21095;SDS011;10706;49.036;12.112;2023-04-19T08:59:06;29.40;;;14.00;;
21095;SDS011;10706;49.036;12.112;2023-04-19T09:01:32;26.33;;;13.10;;
21095;SDS011;10706;49.036;12.112;2023-04-19T09:03:57;30.07;;;13.80;;
21095;SDS011;10706;49.036;12.112;2023-04-19T09:06:23;29.47;;;14.77;;
21095;SDS011;10706;49.036;12.112;2023-04-19T09:08:50;24.60;;;12.63;;
21095;SDS011;10706;49.036;12.112;2023-04-19T09:11:21;28.37;;;13.57;;
21095;SDS011;10706;49.036;12.112;2023-04-19T09:14:09;26.90;;;14.37;;
21095;SDS011;10706;49.036;12.112;2023-04-19T09:16:39;29.10;;;12.73;;
21095;SDS011;10706;49.036;12.112;2023-04-19T09:19:05;25.07;;;12.10;;
21095;SDS011;10706;49.036;12.112;2023-04-19T09:21:33;26.80;;;12.97;;
21095;SDS011;10706;49.036;12.112;2023-04-19T09:23:59;28.40;;;13.07;;
21095;SDS011;10706;49.036;12.112;2023-04-19T09:26:26;29.70;;;12.80;;
21095;SDS011;10706;49.036;12.112;2023-04-19T09:31:32;26.90;;;12.80;;
21095;SDS011;10706;49.036;12.112;2023-04-19T09:34:13;27.03;;;12.50;;
21095;SDS011;10706;49.036;12.112;2023-04-19T09:36:43;28.37;;;12.73;;
21095;SDS011;10706;49.036;12.112;2023-04-19T09:39:09;29.30;;;12.30;;
21095;SDS011;10706;49.036;12.112;2023-04-19T09:41:51;23.60;;;11.53;;
21095;SDS011;10706;49.036;12.112;2023-04-19T09:44:18;24.93;;;11.17;;
21095;SDS011;10706;49.036;12.112;2023-04-19T09:46:44;20.07;;;10.00;;
21095;SDS011;10706;49.036;12.112;2023-04-19T09:49:22;23.40;;;10.00;;
21095;SDS011;10706;49.036;12.112;2023-04-19T09:51:49;22.80;;;10.63;;
21095;SDS011;10706;49.036;12.112;2023-04-19T09:54:18;19.67;;;9.23;;
21095;SDS011;10706;49.036;12.112;2023-04-19T09:56:46;22.73;;;10.40;;
21095;SDS011;10706;49.036;12.112;2023-04-19T09:59:13;24.47;;;10.77;;
21095;SDS011;10706;49.036;12.112;2023-04-19T10:01:41;37.33;;;16.70;;
21095;SDS011;10706;49.036;12.112;2023-04-19T10:04:15;37.13;;;16.53;;
21095;SDS011;10706;49.036;12.112;2023-04-19T10:06:46;32.80;;;15.70;;
21095;SDS011;10706;49.036;12.112;2023-04-19T10:09:13;30.27;;;13.50;;
21095;SDS011;10706;49.036;12.112;2023-04-19T10:11:40;32.07;;;16.93;;
21095;SDS011;10706;49.036;12.112;2023-04-19T10:14:15;27.43;;;13.40;;
21095;SDS011;10706;49.036;12.112;2023-04-19T10:16:46;28.87;;;13.63;;
21095;SDS011;10706;49.036;12.112;2023-04-19T10:19:13;29.27;;;12.53;;
21095;SDS011;10706;49.036;12.112;2023-04-19T10:21:42;29.17;;;13.30;;
21095;SDS011;10706;49.036;12.112;2023-04-19T10:24:11;33.37;;;15.13;;
21095;SDS011;10706;49.036;12.112;2023-04-19T10:29:53;30.10;;;14.43;;
21095;SDS011;10706;49.036;12.112;2023-04-19T10:32:18;27.10;;;13.13;;
21095;SDS011;10706;49.036;12.112;2023-04-19T10:34:45;29.80;;;14.83;;
21095;SDS011;10706;49.036;12.112;2023-04-19T10:37:14;28.83;;;12.87;;
21095;SDS011;10706;49.036;12.112;2023-04-19T10:39:41;25.77;;;12.43;;
21095;SDS011;10706;49.036;12.112;2023-04-19T10:42:08;30.73;;;13.90;;
21095;SDS011;10706;49.036;12.112;2023-04-19T10:44:34;33.63;;;17.50;;
21095;SDS011;10706;49.036;12.112;2023-04-19T10:47:00;27.30;;;12.63;;
21095;SDS011;10706;49.036;12.112;2023-04-19T10:49:29;29.13;;;11.37;;
21095;SDS011;10706;49.036;12.112;2023-04-19T10:51:55;38.60;;;16.07;;
21095;SDS011;10706;49.036;12.112;2023-04-19T10:54:31;34.77;;;15.10;;
21095;SDS011;10706;49.036;12.112;2023-04-19T10:59:24;31.37;;;13.60;;
21095;SDS011;10706;49.036;12.112;2023-04-19T11:01:55;32.47;;;14.20;;
21095;SDS011;10706;49.036;12.112;2023-04-19T11:09:37;29.70;;;13.47;;
21095;SDS011;10706;49.036;12.112;2023-04-19T11:12:12;25.23;;;12.63;;
21095;SDS011;10706;49.036;12.112;2023-04-19T11:14:46;24.10;;;11.03;;
21095;SDS011;10706;49.036;12.112;2023-04-19T11:17:22;24.90;;;11.00;;
21095;SDS011;10706;49.036;12.112;2023-04-19T11:19:55;24.90;;;11.73;;
21095;SDS011;10706;49.036;12.112;2023-04-19T11:22:32;24.33;;;11.73;;
21095;SDS011;10706;49.036;12.112;2023-04-19T11:25:11;27.90;;;12.07;;
21095;SDS011;10706;49.036;12.112;2023-04-19T11:27:43;25.63;;;11.33;;
21095;SDS011;10706;49.036;12.112;2023-04-19T11:30:15;24.53;;;11.07;;
21095;SDS011;10706;49.036;12.112;2023-04-19T11:32:52;25.17;;;11.53;;
21095;SDS011;10706;49.036;12.112;2023-04-19T11:35:20;24.87;;;10.57;;
21095;SDS011;10706;49.036;12.112;2023-04-19T11:37:48;22.70;;;10.90;;
21095;SDS011;10706;49.036;12.112;2023-04-19T11:40:15;31.13;;;12.70;;
21095;SDS011;10706;49.036;12.112;2023-04-19T11:42:43;26.37;;;11.07;;
21095;SDS011;10706;49.036;12.112;2023-04-19T11:45:10;26.17;;;12.10;;
21095;SDS011;10706;49.036;12.112;2023-04-19T11:47:48;25.67;;;11.10;;
21095;SDS011;10706;49.036;12.112;2023-04-19T11:53:19;25.47;;;12.27;;
21095;SDS011;10706;49.036;12.112;2023-04-19T11:55:50;22.60;;;10.70;;
21095;SDS011;10706;49.036;12.112;2023-04-19T11:58:28;24.93;;;11.67;;
21095;SDS011;10706;49.036;12.112;2023-04-19T12:01:07;20.37;;;9.50;;
21095;SDS011;10706;49.036;12.112;2023-04-19T12:03:50;21.97;;;10.40;;
21095;SDS011;10706;49.036;12.112;2023-04-19T12:08:54;21.27;;;9.97;;
21095;SDS011;10706;49.036;12.112;2023-04-19T12:11:21;28.80;;;10.23;;
21095;SDS011;10706;49.036;12.112;2023-04-19T12:14:12;24.70;;;10.13;;
21095;SDS011;10706;49.036;12.112;2023-04-19T12:16:39;18.00;;;8.77;;
21095;SDS011;10706;49.036;12.112;2023-04-19T12:19:13;19.20;;;8.80;;
21095;SDS011;10706;49.036;12.112;2023-04-19T12:21:41;20.75;;;7.93;;
21095;SDS011;10706;49.036;12.112;2023-04-19T12:24:08;16.75;;;6.65;;
21095;SDS011;10706;49.036;12.112;2023-04-19T12:26:34;16.83;;;6.88;;
21095;SDS011;10706;49.036;12.112;2023-04-19T12:29:00;15.85;;;7.22;;
21095;SDS011;10706;49.036;12.112;2023-04-19T12:31:27;15.23;;;6.53;;
21095;SDS011;10706;49.036;12.112;2023-04-19T12:33:56;15.45;;;6.57;;
21095;SDS011;10706;49.036;12.112;2023-04-19T12:36:22;14.15;;;6.20;;
21095;SDS011;10706;49.036;12.112;2023-04-19T12:38:48;15.05;;;6.57;;
21095;SDS011;10706;49.036;12.112;2023-04-19T12:41:14;13.48;;;5.53;;
21095;SDS011;10706;49.036;12.112;2023-04-19T12:43:40;13.73;;;6.07;;
21095;SDS011;10706;49.036;12.112;2023-04-19T12:46:05;13.32;;;5.95;;
21095;SDS011;10706;49.036;12.112;2023-04-19T12:48:31;14.82;;;6.22;;
21095;SDS011;10706;49.036;12.112;2023-04-19T12:50:57;16.40;;;6.88;;
21095;SDS011;10706;49.036;12.112;2023-04-19T12:53:22;14.43;;;6.07;;
21095;SDS011;10706;49.036;12.112;2023-04-19T12:55:49;12.95;;;5.78;;
21095;SDS011;10706;49.036;12.112;2023-04-19T12:58:15;13.68;;;5.75;;
21095;SDS011;10706;49.036;12.112;2023-04-19T13:00:41;12.70;;;5.18;;
21095;SDS011;10706;49.036;12.112;2023-04-19T13:03:08;14.38;;;5.38;;
21095;SDS011;10706;49.036;12.112;2023-04-19T13:05:34;13.00;;;4.78;;
21095;SDS011;10706;49.036;12.112;2023-04-19T13:07:59;10.60;;;4.63;;
21095;SDS011;10706;49.036;12.112;2023-04-19T13:10:25;11.45;;;4.50;;
21095;SDS011;10706;49.036;12.112;2023-04-19T13:12:51;11.55;;;4.85;;
21095;SDS011;10706;49.036;12.112;2023-04-19T13:15:17;15.15;;;6.85;;
21095;SDS011;10706;49.036;12.112;2023-04-19T13:17:42;16.17;;;6.45;;
21095;SDS011;10706;49.036;12.112;2023-04-19T13:20:08;16.00;;;7.22;;
21095;SDS011;10706;49.036;12.112;2023-04-19T13:22:34;16.17;;;6.85;;
21095;SDS011;10706;49.036;12.112;2023-04-19T13:25:00;17.60;;;7.03;;
21095;SDS011;10706;49.036;12.112;2023-04-19T13:27:26;15.50;;;7.18;;
21095;SDS011;10706;49.036;12.112;2023-04-19T13:29:53;17.27;;;7.72;;
21095;SDS011;10706;49.036;12.112;2023-04-19T13:32:20;16.83;;;7.10;;
21095;SDS011;10706;49.036;12.112;2023-04-19T13:34:45;16.45;;;7.55;;
21095;SDS011;10706;49.036;12.112;2023-04-19T13:37:11;20.52;;;7.55;;
21095;SDS011;10706;49.036;12.112;2023-04-19T13:39:37;21.13;;;7.13;;
21095;SDS011;10706;49.036;12.112;2023-04-19T13:42:03;17.02;;;6.80;;
21095;SDS011;10706;49.036;12.112;2023-04-19T13:44:29;15.77;;;7.20;;
21095;SDS011;10706;49.036;12.112;2023-04-19T13:46:55;20.15;;;7.57;;
21095;SDS011;10706;49.036;12.112;2023-04-19T13:49:21;15.68;;;7.10;;
21095;SDS011;10706;49.036;12.112;2023-04-19T13:51:49;15.48;;;7.28;;
21095;SDS011;10706;49.036;12.112;2023-04-19T13:54:15;13.27;;;6.13;;
21095;SDS011;10706;49.036;12.112;2023-04-19T13:56:42;13.60;;;6.07;;
21095;SDS011;10706;49.036;12.112;2023-04-19T13:59:08;15.25;;;6.47;;
21095;SDS011;10706;49.036;12.112;2023-04-19T14:01:37;14.85;;;6.65;;
21095;SDS011;10706;49.036;12.112;2023-04-19T14:04:03;15.23;;;6.18;;
21095;SDS011;10706;49.036;12.112;2023-04-19T14:06:28;15.02;;;6.22;;
21095;SDS011;10706;49.036;12.112;2023-04-19T14:08:56;13.50;;;6.22;;
21095;SDS011;10706;49.036;12.112;2023-04-19T14:11:22;18.77;;;6.70;;
21095;SDS011;10706;49.036;12.112;2023-04-19T14:13:52;16.70;;;6.70;;
21095;SDS011;10706;49.036;12.112;2023-04-19T14:16:18;14.05;;;6.70;;
21095;SDS011;10706;49.036;12.112;2023-04-19T14:18:44;14.35;;;5.28;;
21095;SDS011;10706;49.036;12.112;2023-04-19T14:21:10;15.13;;;5.65;;
21095;SDS011;10706;49.036;12.112;2023-04-19T14:23:36;14.23;;;5.88;;
21095;SDS011;10706;49.036;12.112;2023-04-19T14:26:01;16.48;;;5.90;;
21095;SDS011;10706;49.036;12.112;2023-04-19T14:28:27;14.98;;;5.22;;
21095;SDS011;10706;49.036;12.112;2023-04-19T14:30:53;13.30;;;5.72;;